createdAt,value
2022-10-11T00:00:52.558Z,15.91
2022-10-11T00:03:19.366Z,15.92
2022-10-11T00:05:46.198Z,15.92
2022-10-11T00:08:13.350Z,15.93
2022-10-11T00:10:40.935Z,15.91
2022-10-11T00:13:07.866Z,15.90
2022-10-11T00:15:34.985Z,15.73
2022-10-11T00:18:05.212Z,15.72
2022-10-11T00:20:32.123Z,15.70
2022-10-11T00:22:58.691Z,15.76
2022-10-11T00:25:25.295Z,15.74
2022-10-11T00:27:51.788Z,15.74
2022-10-11T00:30:18.366Z,15.72
2022-10-11T00:32:44.972Z,15.73
2022-10-11T00:35:11.565Z,15.70
2022-10-11T00:37:39.219Z,15.69
2022-10-11T00:40:10.709Z,15.69
2022-10-11T00:42:37.429Z,15.68
2022-10-11T00:45:31.892Z,15.72
2022-10-11T00:48:05.114Z,15.74
2022-10-11T00:50:36.899Z,15.70
2022-10-11T00:53:08.056Z,15.67
2022-10-11T00:55:39.067Z,15.63
2022-10-11T00:58:06.456Z,15.62
2022-10-11T01:00:33.012Z,15.59
2022-10-11T01:03:00.784Z,15.55
2022-10-11T01:05:29.991Z,15.50
2022-10-11T01:07:59.047Z,15.48
2022-10-11T01:10:26.384Z,15.37
2022-10-11T01:13:19.123Z,15.48
2022-10-11T01:15:58.335Z,15.52
2022-10-11T01:18:35.838Z,15.48
2022-10-11T01:21:24.203Z,15.35
2022-10-11T01:23:56.863Z,15.35
2022-10-11T01:27:01.092Z,15.39
2022-10-11T01:29:51.973Z,15.31
2022-10-11T01:32:35.433Z,15.29
2022-10-11T01:35:21.838Z,15.31
2022-10-11T01:38:11.459Z,15.32
2022-10-11T01:40:52.570Z,15.22
2022-10-11T01:43:20.635Z,15.26
2022-10-11T01:45:50.940Z,15.09
2022-10-11T01:48:17.444Z,15.06
2022-10-11T01:50:46.744Z,14.98
2022-10-11T01:53:38.133Z,14.96
2022-10-11T01:56:07.889Z,14.77
2022-10-11T01:58:47.077Z,14.96
2022-10-11T02:01:41.654Z,14.92
2022-10-11T02:04:31.565Z,14.83
2022-10-11T02:07:01.546Z,14.63
2022-10-11T02:09:36.714Z,14.71
2022-10-11T02:12:08.171Z,14.65
2022-10-11T02:14:41.586Z,14.45
2022-10-11T02:17:20.847Z,14.55
2022-10-11T02:19:50.453Z,14.70
2022-10-11T02:22:27.756Z,14.72
2022-10-11T02:24:56.477Z,14.39
2022-10-11T02:27:26.084Z,14.47
2022-10-11T02:29:54.473Z,14.39
2022-10-11T02:32:22.329Z,14.43
2022-10-11T02:34:57.357Z,14.07
2022-10-11T02:37:49.392Z,14.12
2022-10-11T02:40:25.949Z,14.12
2022-10-11T02:42:59.989Z,14.20
2022-10-11T02:45:37.456Z,14.09
2022-10-11T02:48:05.214Z,14.12
2022-10-11T02:50:34.060Z,14.01
2022-10-11T02:53:00.677Z,13.97
2022-10-11T02:55:27.261Z,13.90
2022-10-11T02:57:53.951Z,13.97
2022-10-11T03:00:20.747Z,13.87
2022-10-11T03:02:47.472Z,14.05
2022-10-11T03:05:14.153Z,13.97
2022-10-11T03:07:40.752Z,14.06
2022-10-11T03:10:07.698Z,13.84
2022-10-11T03:12:36.996Z,13.97
2022-10-11T03:15:04.427Z,13.79
2022-10-11T03:17:36.668Z,13.99
2022-10-11T03:20:05.196Z,13.98
2022-10-11T03:22:31.757Z,13.96
2022-10-11T03:25:03.362Z,13.99
2022-10-11T03:27:30.793Z,14.05
2022-10-11T03:29:58.006Z,14.04
2022-10-11T03:32:24.863Z,13.86
2022-10-11T03:34:51.459Z,13.93
2022-10-11T03:37:18.309Z,13.69
2022-10-11T03:39:45.861Z,13.80
2022-10-11T03:42:13.292Z,13.66
2022-10-11T03:44:41.715Z,13.72
2022-10-11T03:47:08.666Z,13.70
2022-10-11T03:49:37.735Z,13.59
2022-10-11T03:52:07.985Z,13.60
2022-10-11T03:54:34.658Z,13.62
2022-10-11T03:57:03.171Z,13.29
2022-10-11T03:59:32.172Z,13.29
2022-10-11T04:01:58.896Z,13.31
2022-10-11T04:04:35.939Z,13.32
2022-10-11T04:07:02.667Z,13.41
2022-10-11T04:09:29.428Z,13.25
2022-10-11T04:11:58.558Z,13.35
2022-10-11T04:14:25.261Z,13.28
2022-10-11T04:16:51.880Z,13.32
2022-10-11T04:19:18.557Z,13.21
2022-10-11T04:21:45.111Z,13.25
2022-10-11T04:24:12.434Z,13.13
2022-10-11T04:26:41.037Z,13.05
2022-10-11T04:29:07.615Z,13.02
2022-10-11T04:31:34.298Z,12.98
2022-10-11T04:34:01.268Z,12.94
2022-10-11T04:36:30.203Z,12.76
2022-10-11T04:38:57.457Z,12.70
2022-10-11T04:41:26.763Z,12.70
2022-10-11T04:43:53.293Z,12.72
2022-10-11T04:46:19.881Z,12.53
2022-10-11T04:48:46.356Z,12.65
2022-10-11T04:51:13.287Z,12.58
2022-10-11T04:53:43.282Z,12.78
2022-10-11T04:56:14.822Z,12.73
2022-10-11T04:58:41.729Z,12.72
2022-10-11T05:01:08.831Z,12.76
2022-10-11T05:03:35.946Z,12.77
2022-10-11T05:06:05.683Z,12.75
2022-10-11T05:08:33.185Z,12.74
2022-10-11T05:11:02.359Z,12.68
2022-10-11T05:13:30.121Z,12.69
2022-10-11T05:15:57.137Z,12.54
2022-10-11T05:18:24.234Z,12.48
2022-10-11T05:20:59.923Z,12.35
2022-10-11T05:23:27.379Z,12.08
2022-10-11T05:25:58.627Z,12.26
2022-10-11T05:28:25.720Z,12.37
2022-10-11T05:30:52.729Z,12.16
2022-10-11T05:33:23.824Z,12.31
2022-10-11T05:35:50.575Z,12.35
2022-10-11T05:38:19.490Z,12.20
2022-10-11T05:40:46.587Z,12.25
2022-10-11T05:43:13.586Z,12.10
2022-10-11T05:45:41.595Z,12.26
2022-10-11T05:48:13.588Z,12.20
2022-10-11T05:50:44.085Z,12.33
2022-10-11T05:53:13.578Z,12.19
2022-10-11T05:55:44.292Z,12.19
2022-10-11T05:58:14.879Z,12.19
2022-10-11T06:00:47.162Z,11.96
2022-10-11T06:03:14.337Z,12.06
2022-10-11T06:05:40.859Z,12.04
2022-10-11T06:08:17.020Z,12.13
2022-10-11T06:10:44.863Z,11.98
2022-10-11T06:13:17.646Z,12.10
2022-10-11T06:15:53.950Z,11.96
2022-10-11T06:18:22.522Z,11.96
2022-10-11T06:20:49.620Z,11.86
2022-10-11T06:23:16.301Z,11.88
2022-10-11T06:25:42.842Z,12.02
2022-10-11T06:28:11.585Z,12.03
2022-10-11T06:30:40.645Z,12.11
2022-10-11T06:33:08.813Z,12.13
2022-10-11T06:35:38.376Z,12.11
2022-10-11T06:38:05.234Z,12.13
2022-10-11T06:40:31.922Z,12.11
2022-10-11T06:42:58.761Z,11.92
2022-10-11T06:45:34.093Z,12.13
2022-10-11T06:48:05.709Z,12.10
2022-10-11T06:50:57.856Z,12.14
2022-10-11T06:53:27.399Z,12.11
2022-10-11T06:55:54.117Z,12.16
2022-10-11T06:58:20.672Z,12.26
2022-10-11T07:00:48.651Z,12.20
2022-10-11T07:03:15.256Z,12.10
2022-10-11T07:05:42.838Z,12.12
2022-10-11T07:08:09.518Z,12.25
2022-10-11T07:10:37.300Z,12.24
2022-10-11T07:13:11.444Z,12.41
2022-10-11T07:15:44.020Z,12.27
2022-10-11T07:18:10.587Z,12.41
2022-10-11T07:20:37.206Z,12.28
2022-10-11T07:23:03.809Z,12.40
2022-10-11T07:25:30.485Z,12.45
2022-10-11T07:27:57.145Z,12.43
2022-10-11T07:30:23.669Z,12.45
2022-10-11T07:32:50.161Z,12.39
2022-10-11T07:35:16.747Z,12.46
2022-10-11T07:37:43.246Z,12.52
2022-10-11T07:40:11.305Z,12.55
2022-10-11T07:42:38.108Z,12.54
2022-10-11T07:45:05.225Z,12.50
2022-10-11T07:47:31.697Z,12.50
2022-10-11T07:49:58.145Z,12.66
2022-10-11T07:52:24.884Z,12.56
2022-10-11T07:54:54.760Z,12.55
2022-10-11T07:57:24.331Z,12.55
2022-10-11T07:59:56.113Z,12.40
2022-10-11T08:02:25.770Z,12.55
2022-10-11T08:05:00.871Z,12.64
2022-10-11T08:07:28.327Z,12.54
2022-10-11T08:10:15.682Z,12.48
2022-10-11T08:13:03.392Z,12.63
2022-10-11T08:18:29.336Z,12.72
2022-10-11T08:20:56.213Z,12.85
2022-10-11T08:23:22.752Z,12.86
2022-10-11T08:25:49.591Z,12.98
2022-10-11T08:28:19.256Z,13.12
2022-10-11T08:30:57.006Z,12.98
2022-10-11T08:33:42.801Z,13.28
2022-10-11T08:36:10.581Z,13.55
2022-10-11T08:38:38.042Z,13.69
2022-10-11T08:41:23.345Z,13.50
2022-10-11T08:44:37.332Z,13.70
2022-10-11T08:47:19.907Z,13.68
2022-10-11T08:49:47.007Z,13.50
2022-10-11T08:52:22.109Z,13.39
2022-10-11T08:55:11.747Z,13.57
2022-10-11T08:57:39.433Z,13.63
2022-10-11T09:00:11.415Z,13.63
2022-10-11T09:03:07.374Z,13.62
2022-10-11T09:05:58.305Z,13.66
2022-10-11T09:08:46.502Z,13.58
2022-10-11T09:11:17.343Z,13.47
2022-10-11T09:13:56.686Z,13.62
2022-10-11T09:16:39.759Z,13.69
2022-10-11T09:19:17.774Z,13.72
2022-10-11T09:21:50.738Z,13.84
2022-10-11T09:24:39.308Z,14.06
2022-10-11T09:27:38.081Z,14.17
2022-10-11T09:30:16.955Z,14.14
2022-10-11T09:32:51.864Z,14.13
2022-10-11T09:35:20.951Z,14.24
2022-10-11T09:38:25.994Z,14.41
2022-10-11T09:41:27.180Z,14.50
2022-10-11T09:43:53.900Z,14.63
2022-10-11T09:46:37.242Z,14.63
2022-10-11T09:49:09.195Z,14.79
2022-10-11T09:51:42.005Z,14.88
2022-10-11T09:54:10.882Z,14.79
2022-10-11T09:56:43.085Z,15.08
2022-10-11T09:59:29.015Z,15.21
2022-10-11T10:02:06.869Z,15.36
2022-10-11T10:04:33.743Z,15.44
2022-10-11T10:07:10.727Z,15.46
2022-10-11T10:09:39.659Z,15.54
2022-10-11T10:12:15.440Z,15.59
2022-10-11T10:14:42.111Z,15.67
2022-10-11T10:17:18.289Z,15.56
2022-10-11T10:19:54.070Z,15.52
2022-10-11T10:22:21.831Z,15.44
2022-10-11T10:24:51.976Z,15.60
2022-10-11T10:27:27.974Z,15.77
2022-10-11T10:30:09.518Z,15.43
2022-10-11T10:32:53.373Z,15.46
2022-10-11T10:35:29.767Z,15.38
2022-10-11T10:38:26.890Z,15.29
2022-10-11T10:40:59.154Z,15.84
2022-10-11T10:43:28.345Z,16.07
2022-10-11T10:46:31.911Z,15.96
2022-10-11T10:52:15.395Z,16.06
2022-10-11T10:55:13.066Z,16.01
2022-10-11T10:58:21.237Z,16.39
2022-10-11T11:01:04.515Z,16.32
2022-10-11T11:03:45.071Z,16.21
2022-10-11T11:06:24.521Z,16.28
2022-10-11T11:09:00.262Z,16.10
2022-10-11T11:11:48.363Z,16.16
2022-10-11T11:14:35.077Z,16.04
2022-10-11T11:17:19.922Z,15.96
2022-10-11T11:20:11.404Z,15.89
2022-10-11T11:23:03.520Z,15.79
2022-10-11T11:25:45.080Z,15.84
2022-10-11T11:28:35.083Z,15.70
2022-10-11T11:31:25.053Z,15.83
2022-10-11T11:34:06.916Z,16.02
2022-10-11T11:36:42.597Z,16.10
2022-10-11T11:39:21.236Z,16.09
2022-10-11T11:41:52.639Z,16.19
2022-10-11T11:44:46.647Z,16.44
2022-10-11T11:47:22.496Z,16.65
2022-10-11T11:50:07.585Z,16.58
2022-10-11T11:52:37.586Z,16.55
2022-10-11T11:55:25.509Z,16.76
2022-10-11T11:58:18.242Z,16.91
2022-10-11T12:00:58.332Z,16.81
2022-10-11T12:03:29.514Z,16.60
2022-10-11T12:06:14.826Z,16.72
2022-10-11T12:08:46.946Z,16.38
2022-10-11T12:11:34.518Z,16.73
2022-10-11T12:14:04.632Z,16.95
2022-10-11T12:16:33.415Z,17.04
2022-10-11T12:19:02.390Z,16.79
2022-10-11T12:21:38.656Z,16.60
2022-10-11T12:24:20.472Z,16.46
2022-10-11T12:26:48.604Z,16.44
2022-10-11T12:29:25.870Z,16.62
2022-10-11T12:32:01.013Z,16.64
2022-10-11T12:34:38.037Z,17.00
2022-10-11T12:37:19.882Z,16.90
2022-10-11T12:39:53.260Z,17.02
2022-10-11T12:42:31.449Z,17.16
2022-10-11T12:45:32.781Z,17.22
2022-10-11T12:48:24.899Z,17.20
2022-10-11T12:51:13.297Z,17.26
2022-10-11T12:54:25.054Z,17.23
2022-10-11T12:56:47.525Z,17.30
2022-10-11T12:59:21.069Z,17.41
2022-10-11T13:01:54.729Z,17.25
2022-10-11T13:04:28.401Z,17.09
2022-10-11T13:06:57.422Z,17.12
2022-10-11T13:09:39.351Z,17.14
2022-10-11T13:12:14.690Z,17.37
2022-10-11T13:14:44.554Z,17.22
2022-10-11T13:17:38.026Z,17.13
2022-10-11T13:20:37.467Z,17.37
2022-10-11T13:23:29.335Z,17.26
2022-10-11T13:25:56.157Z,17.45
2022-10-11T13:28:25.265Z,17.53
2022-10-11T13:30:56.619Z,17.61
2022-10-11T13:33:34.012Z,17.33
2022-10-11T13:36:03.162Z,17.34
2022-10-11T13:38:35.618Z,17.42
2022-10-11T13:41:08.531Z,17.44
2022-10-11T13:43:35.387Z,17.36
2022-10-11T13:46:05.231Z,17.38
2022-10-11T13:48:32.451Z,17.32
2022-10-11T13:51:27.058Z,17.17
2022-10-11T13:53:59.257Z,17.20
2022-10-11T13:56:27.238Z,17.28
2022-10-11T13:58:55.418Z,17.28
2022-10-11T14:01:25.616Z,17.06
2022-10-11T14:04:00.892Z,17.06
2022-10-11T14:06:54.888Z,17.14
2022-10-11T14:09:28.604Z,17.07
2022-10-11T14:11:55.741Z,17.18
2022-10-11T14:14:36.865Z,17.10
2022-10-11T14:17:16.050Z,17.17
2022-10-11T14:19:44.164Z,17.16
2022-10-11T14:22:19.870Z,17.16
2022-10-11T14:24:49.536Z,17.09
2022-10-11T14:27:22.178Z,17.10
2022-10-11T14:30:12.995Z,17.07
2022-10-11T14:32:42.421Z,17.07
2022-10-11T14:35:18.752Z,17.00
2022-10-11T14:37:45.532Z,17.00
2022-10-11T14:40:18.425Z,16.89
2022-10-11T14:42:48.254Z,16.83
2022-10-11T14:45:18.010Z,16.66
2022-10-11T14:47:45.334Z,16.70
2022-10-11T14:50:33.647Z,16.77
2022-10-11T14:53:00.617Z,16.79
2022-10-11T14:55:29.857Z,16.93
2022-10-11T14:57:56.964Z,17.02
2022-10-11T15:00:26.536Z,16.82
2022-10-11T15:02:54.067Z,16.73
2022-10-11T15:05:22.622Z,16.71
2022-10-11T15:07:49.737Z,16.81
2022-10-11T15:10:37.702Z,16.82
2022-10-11T15:13:06.947Z,16.71
2022-10-11T15:15:36.595Z,16.67
2022-10-11T15:18:04.988Z,16.61
2022-10-11T15:20:40.755Z,16.51
2022-10-11T15:23:12.096Z,16.54
2022-10-11T15:25:40.564Z,16.59
2022-10-11T15:28:08.103Z,16.43
2022-10-11T15:30:41.059Z,16.46
2022-10-11T15:33:08.578Z,16.40
2022-10-11T15:35:35.214Z,16.37
2022-10-11T15:38:01.790Z,16.29
2022-10-11T15:40:38.194Z,16.13
2022-10-11T15:43:05.074Z,16.22
2022-10-11T15:45:31.707Z,16.13
2022-10-11T15:47:58.860Z,16.13
2022-10-11T15:50:36.247Z,15.94
2022-10-11T15:53:12.226Z,16.05
2022-10-11T15:55:44.240Z,16.03
2022-10-11T15:58:15.409Z,16.05
2022-10-11T16:00:43.143Z,15.98
2022-10-11T16:03:11.683Z,15.71
2022-10-11T16:05:38.737Z,15.78
2022-10-11T16:08:05.416Z,15.87
2022-10-11T16:10:32.288Z,15.83
2022-10-11T16:12:58.813Z,15.88
2022-10-11T16:15:25.331Z,15.84
2022-10-11T16:17:52.144Z,15.61
2022-10-11T16:20:25.832Z,15.69
2022-10-11T16:22:56.058Z,15.51
2022-10-11T16:25:23.972Z,15.54
2022-10-11T16:27:51.015Z,15.47
2022-10-11T16:30:22.728Z,15.43
2022-10-11T16:32:49.548Z,15.34
2022-10-11T16:35:19.705Z,15.14
2022-10-11T16:37:46.356Z,15.23
2022-10-11T16:40:17.342Z,15.04
2022-10-11T16:42:44.911Z,15.07
2022-10-11T16:45:12.496Z,15.05
2022-10-11T16:47:39.154Z,15.08
2022-10-11T16:50:06.151Z,14.99
2022-10-11T16:52:32.849Z,14.97
2022-10-11T16:54:59.302Z,14.83
2022-10-11T16:57:25.854Z,14.79
2022-10-11T16:59:54.456Z,14.60
2022-10-11T17:02:31.330Z,14.50
2022-10-11T17:04:58.896Z,14.49
2022-10-11T17:07:25.527Z,14.48
2022-10-11T17:09:52.095Z,14.45
2022-10-11T17:12:21.306Z,14.36
2022-10-11T17:14:48.672Z,14.26
2022-10-11T17:17:15.836Z,14.15
2022-10-11T17:19:45.359Z,14.21
2022-10-11T17:22:13.050Z,14.23
2022-10-11T17:24:39.848Z,14.14
2022-10-11T17:27:06.907Z,13.98
2022-10-11T17:29:33.904Z,14.13
2022-10-11T17:32:02.083Z,14.02
2022-10-11T17:34:28.860Z,13.90
2022-10-11T17:36:55.514Z,13.86
2022-10-11T17:39:23.612Z,13.66
2022-10-11T17:41:50.474Z,13.46
2022-10-11T17:44:18.604Z,13.68
2022-10-11T17:46:48.339Z,13.57
2022-10-11T17:49:15.190Z,13.44
2022-10-11T17:51:42.091Z,13.55
2022-10-11T17:54:12.674Z,13.37
2022-10-11T17:56:40.938Z,13.23
2022-10-11T17:59:09.016Z,13.32
2022-10-11T18:01:36.315Z,13.28
2022-10-11T18:04:04.567Z,13.22
2022-10-11T18:06:34.108Z,13.10
2022-10-11T18:09:04.543Z,13.14
2022-10-11T18:11:31.485Z,13.18
2022-10-11T18:13:58.025Z,13.02
2022-10-11T18:16:29.371Z,12.88
2022-10-11T18:18:57.427Z,12.99
2022-10-11T18:21:29.871Z,12.82
2022-10-11T18:24:02.591Z,12.86
2022-10-11T18:26:30.745Z,12.76
2022-10-11T18:28:58.134Z,12.86
2022-10-11T18:31:28.433Z,12.77
2022-10-11T18:33:55.530Z,12.70
2022-10-11T18:36:24.515Z,12.72
2022-10-11T18:39:03.054Z,12.64
2022-10-11T18:41:31.793Z,12.60
2022-10-11T18:44:02.660Z,12.48
2022-10-11T18:46:29.713Z,12.45
2022-10-11T18:48:58.182Z,12.40
2022-10-11T18:51:30.673Z,12.23
2022-10-11T18:54:01.029Z,12.33
2022-10-11T18:56:29.155Z,12.25
2022-10-11T18:58:57.288Z,12.34
2022-10-11T19:01:30.065Z,12.30
2022-10-11T19:03:58.087Z,12.34
2022-10-11T19:06:30.398Z,12.19
2022-10-11T19:09:06.644Z,12.05
2022-10-11T19:11:39.045Z,11.68
2022-10-11T19:14:11.972Z,11.73
2022-10-11T19:16:40.814Z,11.79
2022-10-11T19:19:09.402Z,11.69
2022-10-11T19:21:36.240Z,11.62
2022-10-11T19:24:03.294Z,11.57
2022-10-11T19:26:33.584Z,11.38
2022-10-11T19:29:08.057Z,11.27
2022-10-11T19:31:38.306Z,11.31
2022-10-11T19:34:04.963Z,11.22
2022-10-11T19:36:36.257Z,11.18
2022-10-11T19:39:04.375Z,11.17
2022-10-11T19:41:31.418Z,11.19
2022-10-11T19:44:00.819Z,11.13
2022-10-11T19:46:51.088Z,11.00
2022-10-11T19:49:20.435Z,11.07
2022-10-11T19:51:47.148Z,10.87
2022-10-11T19:54:14.665Z,10.77
2022-10-11T19:56:42.524Z,10.72
2022-10-11T19:59:10.377Z,10.75
2022-10-11T20:01:40.364Z,10.85
2022-10-11T20:04:22.623Z,10.63
2022-10-11T20:06:54.325Z,10.51
2022-10-11T20:09:30.039Z,10.60
2022-10-11T20:11:58.374Z,10.43
2022-10-11T20:14:25.121Z,10.51
2022-10-11T20:16:52.091Z,10.51
2022-10-11T20:19:26.336Z,10.30
2022-10-11T20:21:57.534Z,10.17
2022-10-11T20:24:24.050Z,10.13
2022-10-11T20:26:50.514Z,10.27
2022-10-11T20:29:17.011Z,10.09
2022-10-11T20:31:46.683Z,10.04
2022-10-11T20:34:13.468Z,10.06
2022-10-11T20:36:39.978Z,10.10
2022-10-11T20:39:06.717Z,9.83
2022-10-11T20:41:37.047Z,9.87
2022-10-11T20:44:04.688Z,9.77
2022-10-11T20:46:33.694Z,9.55
2022-10-11T20:49:02.524Z,9.54
2022-10-11T20:51:36.931Z,9.56
2022-10-11T20:54:06.745Z,9.61
2022-10-11T20:56:34.422Z,9.58
2022-10-11T20:59:01.524Z,9.51
2022-10-11T21:01:30.483Z,9.52
2022-10-11T21:03:58.321Z,9.55
2022-10-11T21:06:25.764Z,9.46
2022-10-11T21:08:55.268Z,9.48
2022-10-11T21:11:24.433Z,9.37
2022-10-11T21:13:57.839Z,9.35
2022-10-11T21:16:25.246Z,9.37
2022-10-11T21:18:53.286Z,9.28
2022-10-11T21:21:26.125Z,9.29
2022-10-11T21:24:00.010Z,9.27
2022-10-11T21:26:27.633Z,9.31
2022-10-11T21:28:54.448Z,9.18
2022-10-11T21:31:21.745Z,9.05
2022-10-11T21:33:48.662Z,8.97
2022-10-11T21:36:17.684Z,9.00
2022-10-11T21:38:44.621Z,9.01
2022-10-11T21:41:14.306Z,9.03
2022-10-11T21:43:41.011Z,9.01
2022-10-11T21:46:10.001Z,8.89
2022-10-11T21:48:36.925Z,8.85
2022-10-11T21:51:03.641Z,8.79
2022-10-11T21:53:33.086Z,8.79
2022-10-11T21:56:00.699Z,8.72
2022-10-11T21:58:27.742Z,8.66
2022-10-11T22:00:54.336Z,8.79
2022-10-11T22:03:21.030Z,8.80
2022-10-11T22:05:49.206Z,8.90
2022-10-11T22:08:16.288Z,9.01
2022-10-11T22:10:44.259Z,8.83
2022-10-11T22:13:11.332Z,8.70
2022-10-11T22:15:37.900Z,8.84
2022-10-11T22:18:05.919Z,8.66
2022-10-11T22:20:33.116Z,8.90
2022-10-11T22:22:59.859Z,8.88
2022-10-11T22:25:26.501Z,8.74
2022-10-11T22:27:53.011Z,8.58
2022-10-11T22:30:19.486Z,8.54
2022-10-11T22:32:46.109Z,8.52
2022-10-11T22:35:12.554Z,8.65
2022-10-11T22:37:41.913Z,8.48
2022-10-11T22:40:08.702Z,8.38
2022-10-11T22:42:35.381Z,8.44
2022-10-11T22:45:01.999Z,8.39
2022-10-11T22:47:28.512Z,8.34
2022-10-11T22:49:55.023Z,8.08
2022-10-11T22:52:21.553Z,8.11
2022-10-11T22:54:48.083Z,8.02
2022-10-11T22:57:14.565Z,8.19
2022-10-11T22:59:41.139Z,8.22
2022-10-11T23:02:07.874Z,8.23
2022-10-11T23:04:34.607Z,8.15
2022-10-11T23:07:04.747Z,8.24
2022-10-11T23:09:31.757Z,8.15
2022-10-11T23:11:59.332Z,8.16
2022-10-11T23:14:25.885Z,7.94
2022-10-11T23:16:52.958Z,7.98
2022-10-11T23:19:19.770Z,8.06
2022-10-11T23:21:46.786Z,8.03
2022-10-11T23:24:13.454Z,8.09
2022-10-11T23:26:40.042Z,7.90
2022-10-11T23:29:06.555Z,7.70
2022-10-11T23:31:33.131Z,7.83
2022-10-11T23:33:59.694Z,7.75
2022-10-11T23:36:26.439Z,7.59
2022-10-11T23:38:57.394Z,7.62
2022-10-11T23:41:26.184Z,7.63
2022-10-11T23:43:55.868Z,7.63
2022-10-11T23:46:22.625Z,7.59
2022-10-11T23:48:49.199Z,7.78
2022-10-11T23:51:16.230Z,7.96
2022-10-11T23:53:43.008Z,7.83
2022-10-11T23:56:11.047Z,7.80
2022-10-11T23:58:37.820Z,7.80
